Time;durP1;ratioP1;P1;durP2;ratioP2;P2;SDS_P1;SDS_P2;PMS_P1;PMS_P2;Temp;Humidity;BMP_temperature;BMP_pressure;BME280_temperature;BME280_humidity;BME280_pressure;Samples;Min_cycle;Max_cycle;Signal;HPM_P1;HPM_P2
2022/10/03 00:00:40;;;;;;;1.83;0.70;;;13.70;99.90;;;;;;6233072;23;20004;-67
2022/10/03 00:03:32;;;;;;;2.75;0.90;;;13.70;99.90;;;;;;6232557;23;20125;-67
2022/10/03 00:06:34;;;;;;;2.40;0.98;;;13.70;99.90;;;;;;6232275;23;20032;-68
2022/10/03 00:09:15;;;;;;;3.50;0.90;;;13.70;99.90;;;;;;6213843;23;20012;-67
2022/10/03 00:12:21;;;;;;;2.35;1.02;;;13.70;99.90;;;;;;6231681;22;20367;-67
2022/10/03 00:15:04;;;;;;;2.15;0.70;;;13.70;99.90;;;;;;6234272;23;20003;-68
2022/10/03 00:17:42;;;;;;;3.13;0.95;;;13.70;99.90;;;;;;6232865;23;20008;-67
2022/10/03 00:20:26;;;;;;;2.05;0.80;;;13.60;99.90;;;;;;6234250;23;20622;-67
2022/10/03 00:23:17;;;;;;;3.70;1.00;;;13.70;99.90;;;;;;6234190;23;20019;-68
2022/10/03 00:25:58;;;;;;;1.50;1.05;;;13.60;99.90;;;;;;6232431;23;20004;-67
2022/10/03 00:28:42;;;;;;;1.20;0.80;;;13.60;99.90;;;;;;6233623;23;20008;-67
2022/10/03 00:31:36;;;;;;;2.72;0.90;;;13.50;99.90;;;;;;6233994;23;20028;-66
2022/10/03 00:34:08;;;;;;;2.63;1.10;;;13.50;99.90;;;;;;6235926;23;20042;-66
2022/10/03 00:37:04;;;;;;;2.30;0.80;;;13.50;99.90;;;;;;6235653;23;20007;-68
2022/10/03 00:39:58;;;;;;;1.75;0.95;;;13.50;99.90;;;;;;6234770;23;20004;-66
2022/10/03 00:42:54;;;;;;;1.30;0.70;;;13.50;99.90;;;;;;6233259;23;20046;-66
2022/10/03 00:45:49;;;;;;;3.17;1.00;;;13.40;99.90;;;;;;6232809;23;20004;-67
2022/10/03 00:48:23;;;;;;;2.40;1.10;;;13.40;99.90;;;;;;6235181;23;20011;-66
2022/10/03 00:50:52;;;;;;;1.35;0.95;;;13.50;99.90;;;;;;6235227;23;20000;-66
2022/10/03 00:53:47;;;;;;;2.50;1.05;;;13.60;99.90;;;;;;6235148;23;20284;-66
2022/10/03 00:56:51;;;;;;;0.85;0.73;;;13.50;99.90;;;;;;6232176;22;20039;-66
2022/10/03 00:59:41;;;;;;;2.35;1.00;;;13.50;99.90;;;;;;6230590;23;20497;-67
2022/10/03 01:02:46;;;;;;;2.20;1.02;;;13.60;99.90;;;;;;6230712;23;20042;-66
2022/10/03 01:05:34;;;;;;;3.35;0.93;;;13.50;99.90;;;;;;6231613;23;20429;-67
2022/10/03 01:08:06;;;;;;;2.67;0.95;;;13.50;99.90;;;;;;6233467;22;20000;-67
2022/10/03 01:11:09;;;;;;;8.43;0.90;;;13.40;99.90;;;;;;6230966;22;20871;-66
2022/10/03 01:13:50;;;;;;;1.20;0.82;;;13.50;99.90;;;;;;6234877;23;20020;-67
2022/10/03 01:16:41;;;;;;;2.50;1.02;;;13.60;99.90;;;;;;6232847;23;20016;-68
2022/10/03 01:19:51;;;;;;;3.53;0.70;;;13.60;99.90;;;;;;6235369;22;20075;-67
2022/10/03 01:22:38;;;;;;;2.75;0.80;;;13.60;99.90;;;;;;6233734;23;20807;-67
2022/10/03 01:25:18;;;;;;;3.95;0.70;;;13.70;99.90;;;;;;6234950;22;20004;-67
2022/10/03 01:31:01;;;;;;;;;;;13.70;99.90;;;;;;6234572;23;20516;-78
2022/10/03 01:33:36;;;;;;;1.42;0.80;;;13.50;99.90;;;;;;6231837;22;19904;-76
2022/10/03 01:36:11;;;;;;;1.63;0.80;;;13.60;99.90;;;;;;6235152;23;20008;-79
2022/10/03 01:38:48;;;;;;;3.85;1.20;;;13.60;99.90;;;;;;6234726;23;20036;-79
2022/10/03 01:41:33;;;;;;;1.83;0.88;;;13.50;99.90;;;;;;6235530;23;20035;-80
2022/10/03 01:44:25;;;;;;;2.08;0.88;;;13.50;99.90;;;;;;6236687;23;20000;-81
2022/10/03 01:47:07;;;;;;;4.05;1.05;;;13.60;99.90;;;;;;6235106;22;20214;-80
2022/10/03 01:50:05;;;;;;;4.05;1.20;;;13.60;99.90;;;;;;6234080;23;20008;-67
2022/10/03 01:52:44;;;;;;;3.15;1.50;;;13.60;99.90;;;;;;6202525;22;20421;-67
2022/10/03 01:55:40;;;;;;;1.33;0.90;;;13.60;99.90;;;;;;6235314;23;20055;-67
2022/10/03 01:58:22;;;;;;;1.65;1.20;;;13.60;99.90;;;;;;6234466;22;20007;-65
2022/10/03 02:00:57;;;;;;;4.63;1.00;;;13.70;99.90;;;;;;6232787;23;20087;-67
2022/10/03 02:03:31;;;;;;;4.22;1.00;;;13.70;99.90;;;;;;6231786;23;20265;-67
2022/10/03 02:06:35;;;;;;;1.63;0.80;;;13.70;99.90;;;;;;6233064;23;20027;-68
2022/10/03 02:09:47;;;;;;;2.38;1.75;;;13.70;99.90;;;;;;6235898;23;20536;-67
2022/10/03 02:12:26;;;;;;;1.58;1.08;;;13.70;99.90;;;;;;6179157;22;20016;-67
2022/10/03 02:15:21;;;;;;;2.70;1.20;;;13.70;99.90;;;;;;6235974;23;20008;-67
2022/10/03 02:17:58;;;;;;;2.45;1.38;;;13.50;99.90;;;;;;6233126;23;20032;-65
2022/10/03 02:20:33;;;;;;;1.45;1.10;;;13.50;99.90;;;;;;6233890;23;20008;-65
2022/10/03 02:22:59;;;;;;;2.55;1.60;;;13.60;99.90;;;;;;6233285;23;20019;-65
2022/10/03 02:25:30;;;;;;;1.65;1.13;;;13.60;99.90;;;;;;6234994;23;20004;-65
2022/10/03 02:28:08;;;;;;;4.60;1.20;;;13.70;99.90;;;;;;6233693;23;20036;-65
2022/10/03 02:30:51;;;;;;;4.32;1.30;;;13.70;99.90;;;;;;6233375;23;20078;-65
2022/10/03 02:33:30;;;;;;;5.45;1.58;;;13.60;99.90;;;;;;6233621;23;20000;-66
2022/10/03 02:36:33;;;;;;;2.83;1.05;;;13.70;99.90;;;;;;6235813;23;20004;-65
2022/10/03 02:39:11;;;;;;;;;;;13.70;99.90;;;;;;6235500;23;20054;-66
2022/10/03 02:41:54;;;;;;;5.28;1.20;;;13.60;99.90;;;;;;6234032;22;19912;-66
2022/10/03 02:44:36;;;;;;;2.15;1.20;;;13.60;99.90;;;;;;6234876;23;20000;-66
2022/10/03 02:47:02;;;;;;;2.83;1.48;;;13.50;99.90;;;;;;6232165;23;20087;-78
2022/10/03 02:49:49;;;;;;;3.40;1.40;;;13.50;99.90;;;;;;6235951;23;20072;-79
2022/10/03 02:52:33;;;;;;;2.28;1.20;;;13.40;99.90;;;;;;6234310;22;20000;-76
2022/10/03 02:55:20;;;;;;;2.75;1.38;;;13.40;99.90;;;;;;6234736;23;20008;-79
2022/10/03 02:58:01;;;;;;;1.80;1.20;;;13.40;99.90;;;;;;6235031;23;19992;-78
2022/10/03 03:00:54;;;;;;;1.25;1.10;;;13.50;99.90;;;;;;6232393;23;20473;-75
2022/10/03 03:03:47;;;;;;;3.33;1.25;;;13.40;99.90;;;;;;6232293;23;20016;-79
2022/10/03 03:06:43;;;;;;;4.07;1.55;;;13.40;99.90;;;;;;6233339;22;20030;-77
2022/10/03 03:09:30;;;;;;;1.90;1.00;;;13.30;99.90;;;;;;6236313;22;20008;-78
2022/10/03 03:12:23;;;;;;;1.75;1.27;;;13.40;99.90;;;;;;6233830;22;19997;-78
2022/10/03 03:15:26;;;;;;;1.83;1.20;;;13.40;99.90;;;;;;6235845;23;20008;-78
2022/10/03 03:18:11;;;;;;;2.38;1.25;;;13.40;99.90;;;;;;6236400;22;20004;-80
2022/10/03 03:21:07;;;;;;;2.42;1.10;;;13.40;99.90;;;;;;6235249;23;20001;-77
2022/10/03 03:23:54;;;;;;;4.45;1.50;;;13.40;99.90;;;;;;6236074;23;20449;-79
2022/10/03 03:26:39;;;;;;;2.17;1.30;;;13.40;99.90;;;;;;6237268;23;20003;-78
2022/10/03 03:29:27;;;;;;;2.60;1.30;;;13.40;99.90;;;;;;6235858;23;20473;-77
2022/10/03 03:32:19;;;;;;;2.45;1.38;;;13.40;99.90;;;;;;6233809;23;20012;-79
2022/10/03 03:34:53;;;;;;;2.72;1.15;;;13.40;99.90;;;;;;6237051;22;20097;-77
2022/10/03 03:37:44;;;;;;;3.40;1.50;;;13.40;99.90;;;;;;6237073;23;19996;-78
2022/10/03 03:40:44;;;;;;;7.00;1.27;;;13.30;99.90;;;;;;6190369;22;20012;-78
2022/10/03 03:44:04;;;;;;;2.20;1.27;;;13.20;99.90;;;;;;6234333;22;20404;-79
2022/10/03 03:46:39;;;;;;;4.53;1.17;;;13.10;99.90;;;;;;6234720;22;20060;-66
2022/10/03 03:49:25;;;;;;;1.85;0.98;;;13.20;99.90;;;;;;6236068;23;20004;-66
2022/10/03 03:52:10;;;;;;;3.35;1.40;;;13.30;99.90;;;;;;6233987;23;20016;-65
2022/10/03 03:55:00;;;;;;;2.33;1.33;;;13.20;99.90;;;;;;6234737;23;20083;-66
2022/10/03 03:57:55;;;;;;;2.67;1.20;;;13.20;99.90;;;;;;6234579;23;20004;-66
2022/10/03 04:00:34;;;;;;;2.85;1.23;;;13.30;99.90;;;;;;6234317;23;20070;-66
2022/10/03 04:03:11;;;;;;;3.65;1.17;;;13.20;99.90;;;;;;6236521;23;20107;-66
2022/10/03 04:05:54;;;;;;;3.60;1.40;;;13.20;99.90;;;;;;6233902;23;19996;-78
2022/10/03 04:08:40;;;;;;;1.85;1.02;;;13.10;99.90;;;;;;6237880;23;20086;-76
2022/10/03 04:11:36;;;;;;;2.28;1.25;;;13.10;99.90;;;;;;6236448;22;20463;-78
2022/10/03 04:14:10;;;;;;;3.13;1.42;;;13.10;99.90;;;;;;6234958;23;20004;-75
2022/10/03 04:20:17;;;;;;;3.05;1.05;;;13.10;99.90;;;;;;6234718;23;20034;-78
2022/10/03 04:22:59;;;;;;;3.25;0.88;;;13.10;99.90;;;;;;6236268;23;20124;-66
2022/10/03 04:25:45;;;;;;;5.50;1.13;;;13.30;99.90;;;;;;6233148;23;20019;-66
2022/10/03 04:28:57;;;;;;;3.03;1.35;;;13.20;99.90;;;;;;6234406;23;20008;-65
2022/10/03 04:31:44;;;;;;;4.03;1.63;;;13.20;99.90;;;;;;6115828;23;20013;-65
2022/10/03 04:34:29;;;;;;;4.38;1.30;;;13.20;99.90;;;;;;6236748;22;20020;-65
2022/10/03 04:36:55;;;;;;;3.95;1.33;;;13.30;99.90;;;;;;6234609;23;20845;-65
2022/10/03 04:40:00;;;;;;;3.30;1.30;;;13.20;99.90;;;;;;6236983;23;20075;-65
2022/10/03 04:42:41;;;;;;;2.58;1.50;;;13.20;99.90;;;;;;6235049;22;20024;-65
2022/10/03 04:45:51;;;;;;;5.15;1.40;;;13.20;99.90;;;;;;6233869;23;20585;-65
2022/10/03 04:48:44;;;;;;;1.90;1.50;;;13.20;99.90;;;;;;6231212;23;20066;-65
2022/10/03 04:51:19;;;;;;;4.70;2.13;;;13.20;99.90;;;;;;6237010;23;20341;-65
2022/10/03 04:54:03;;;;;;;2.60;1.48;;;13.20;99.90;;;;;;6235310;23;20008;-64
2022/10/03 04:56:41;;;;;;;3.40;1.83;;;13.20;99.90;;;;;;6231306;23;20336;-65
2022/10/03 04:59:27;;;;;;;4.60;1.63;;;13.20;99.90;;;;;;6233917;23;20008;-66
2022/10/03 05:02:15;;;;;;;2.30;1.60;;;13.30;99.90;;;;;;6234402;23;20008;-77
2022/10/03 05:05:13;;;;;;;1.92;1.35;;;13.10;99.90;;;;;;6233849;23;20337;-74
2022/10/03 05:08:06;;;;;;;4.82;2.90;;;13.00;99.90;;;;;;6233788;23;20006;-75
2022/10/03 05:11:14;;;;;;;14.40;2.65;;;13.10;99.90;;;;;;6231950;22;20012;-77
2022/10/03 05:14:03;;;;;;;1.50;1.40;;;13.10;99.90;;;;;;6209024;22;20073;-77
2022/10/03 05:16:53;;;;;;;2.65;1.58;;;13.00;99.90;;;;;;6231416;22;20004;-75
2022/10/03 05:19:40;;;;;;;3.67;1.58;;;13.00;99.90;;;;;;6232654;23;20337;-75
2022/10/03 05:22:33;;;;;;;3.42;1.45;;;13.10;99.90;;;;;;6233416;23;20004;-75
2022/10/03 05:25:27;;;;;;;2.78;1.48;;;13.20;99.90;;;;;;6235447;22;20035;-76
2022/10/03 05:28:30;;;;;;;2.15;1.38;;;13.30;99.90;;;;;;6236166;22;20012;-82
2022/10/03 05:31:25;;;;;;;1.73;1.27;;;13.40;99.90;;;;;;6234105;23;20004;-78
2022/10/03 05:34:00;;;;;;;4.30;1.92;;;13.40;99.90;;;;;;6235258;23;20016;-80
2022/10/03 05:36:30;;;;;;;3.35;1.90;;;13.40;99.90;;;;;;6233745;23;20070;-77
2022/10/03 05:39:23;;;;;;;2.55;1.50;;;13.50;99.90;;;;;;6235113;23;20516;-68
2022/10/03 05:41:53;;;;;;;1.30;1.00;;;13.50;99.90;;;;;;6234769;22;20008;-66
2022/10/03 05:44:32;;;;;;;5.13;1.70;;;13.50;99.90;;;;;;6235650;23;20015;-66
2022/10/03 05:47:04;;;;;;;5.28;2.05;;;13.60;99.90;;;;;;6234696;23;20075;-66
2022/10/03 05:49:43;;;;;;;3.60;1.87;;;13.70;99.90;;;;;;6232842;23;20195;-67
2022/10/03 05:52:27;;;;;;;3.15;1.13;;;13.80;99.90;;;;;;6234581;23;20221;-66
2022/10/03 05:55:17;;;;;;;3.70;1.13;;;13.90;99.90;;;;;;6235187;23;20035;-66
2022/10/03 05:57:51;;;;;;;3.85;1.55;;;14.00;99.90;;;;;;6234851;23;20310;-78
2022/10/03 06:00:20;;;;;;;3.50;1.30;;;14.10;99.90;;;;;;6234592;23;20008;-79
2022/10/03 06:02:54;;;;;;;3.72;1.23;;;14.20;99.90;;;;;;6231675;23;20048;-79
2022/10/03 06:05:38;;;;;;;2.45;0.90;;;14.30;99.90;;;;;;6235430;23;20004;-78
2022/10/03 06:08:13;;;;;;;2.80;1.10;;;14.40;99.90;;;;;;6233381;22;20003;-78
2022/10/03 06:11:12;;;;;;;4.25;1.38;;;14.20;99.90;;;;;;6234298;22;20046;-82
2022/10/03 06:14:16;;;;;;;2.50;1.00;;;13.90;99.90;;;;;;6234290;23;20044;-86
2022/10/03 06:17:00;;;;;;;6.28;1.05;;;13.80;99.90;;;;;;6234340;23;20123;-65
2022/10/03 06:19:50;;;;;;;1.77;0.80;;;13.80;99.90;;;;;;6237229;22;20011;-68
2022/10/03 06:22:37;;;;;;;7.22;1.02;;;13.80;99.90;;;;;;6236608;22;20008;-65
2022/10/03 06:25:27;;;;;;;3.55;0.93;;;13.80;99.90;;;;;;6234823;22;20073;-65
2022/10/03 06:28:20;;;;;;;2.88;1.17;;;13.80;99.90;;;;;;6236775;23;20016;-65
2022/10/03 06:31:04;;;;;;;3.70;1.10;;;13.80;99.90;;;;;;6234896;23;20454;-66
2022/10/03 06:33:51;;;;;;;7.75;1.00;;;13.60;99.90;;;;;;6236538;23;20012;-66
2022/10/03 06:36:51;;;;;;;3.17;1.42;;;13.50;99.90;;;;;;6235501;23;20000;-65
2022/10/03 06:39:57;;;;;;;3.65;1.15;;;13.50;99.90;;;;;;6234541;22;20512;-65
2022/10/03 06:42:53;;;;;;;5.00;1.00;;;13.40;99.90;;;;;;6233800;22;20345;-68
2022/10/03 06:45:53;;;;;;;3.90;1.05;;;13.50;99.90;;;;;;6231291;23;20031;-66
2022/10/03 06:48:37;;;;;;;3.95;0.95;;;13.60;99.90;;;;;;6235296;23;20004;-66
2022/10/03 06:51:36;;;;;;;8.10;2.85;;;13.60;99.90;;;;;;6235722;23;20010;-66
2022/10/03 06:54:36;;;;;;;4.20;0.95;;;13.70;99.90;;;;;;6233847;23;20441;-66
2022/10/03 06:57:20;;;;;;;4.70;0.90;;;13.70;99.90;;;;;;6232883;23;20023;-66
2022/10/03 07:00:20;;;;;;;4.43;0.95;;;13.80;99.90;;;;;;6235753;23;19996;-66
2022/10/03 07:03:10;;;;;;;3.10;0.77;;;14.00;99.90;;;;;;6233402;22;20150;-66
2022/10/03 07:06:10;;;;;;;3.22;0.80;;;14.20;99.90;;;;;;6233804;23;20000;-66
2022/10/03 07:08:54;;;;;;;3.50;0.73;;;14.30;99.90;;;;;;6233018;23;20010;-65
2022/10/03 07:11:39;;;;;;;2.88;0.82;;;14.40;99.90;;;;;;6234738;22;20722;-65
2022/10/03 07:14:35;;;;;;;4.45;0.80;;;14.30;99.90;;;;;;6234704;22;20009;-67
2022/10/03 07:17:17;;;;;;;1.85;0.80;;;14.30;99.90;;;;;;6234186;23;20007;-66
2022/10/03 07:20:02;;;;;;;3.72;0.90;;;14.20;99.90;;;;;;6232512;23;20008;-66
2022/10/03 07:22:55;;;;;;;5.60;0.98;;;14.00;99.90;;;;;;6231008;23;20012;-67
2022/10/03 07:25:29;;;;;;;3.38;0.88;;;14.00;99.90;;;;;;6230642;23;20011;-65
2022/10/03 07:28:32;;;;;;;2.83;0.98;;;13.90;99.90;;;;;;6228538;23;20001;-65
2022/10/03 07:31:11;;;;;;;10.00;1.17;;;13.80;99.90;;;;;;6231487;22;20087;-66
2022/10/03 07:34:22;;;;;;;4.93;1.17;;;13.80;99.90;;;;;;6232353;23;20092;-65
2022/10/03 07:40:07;;;;;;;2.47;0.70;;;13.70;99.90;;;;;;6233962;23;20109;-65
2022/10/03 07:43:19;;;;;;;3.35;1.08;;;13.70;99.90;;;;;;6234884;22;20044;-65
2022/10/03 07:46:04;;;;;;;5.97;1.00;;;13.60;99.90;;;;;;6211148;22;20043;-65
2022/10/03 07:48:45;;;;;;;3.95;1.33;;;13.60;99.90;;;;;;6229319;23;20008;-65
2022/10/03 07:51:31;;;;;;;5.10;0.90;;;13.60;99.90;;;;;;6229904;23;20015;-65
2022/10/03 07:54:26;;;;;;;3.13;1.20;;;13.60;99.90;;;;;;6236113;23;20038;-80
2022/10/03 07:57:03;;;;;;;3.35;0.98;;;13.60;99.90;;;;;;6234085;23;20004;-82
2022/10/03 07:59:58;;;;;;;5.10;1.02;;;13.60;99.90;;;;;;6235567;23;20177;-78
2022/10/03 08:02:42;;;;;;;4.38;0.70;;;13.70;99.90;;;;;;6234377;23;20019;-79
2022/10/03 08:05:47;;;;;;;2.60;0.70;;;13.80;99.90;;;;;;6232811;23;20089;-82
2022/10/03 08:08:30;;;;;;;4.28;0.88;;;13.80;99.90;;;;;;6178922;23;20008;-76
2022/10/03 08:11:28;;;;;;;5.20;1.00;;;13.80;99.90;;;;;;6229867;22;20008;-66
2022/10/03 08:14:05;;;;;;;3.97;0.90;;;13.70;99.90;;;;;;6218038;23;20019;-65
2022/10/03 08:16:57;;;;;;;5.95;1.10;;;13.70;99.90;;;;;;6233448;23;20035;-65
2022/10/03 08:19:44;;;;;;;2.57;0.67;;;13.80;99.90;;;;;;6235609;23;20010;-65
2022/10/03 08:22:24;;;;;;;3.22;0.73;;;13.80;99.90;;;;;;6237488;22;20249;-66
2022/10/03 08:25:08;;;;;;;3.50;0.90;;;13.80;99.90;;;;;;6237199;23;20004;-66
2022/10/03 08:27:52;;;;;;;4.53;1.17;;;13.80;99.90;;;;;;6234984;23;20000;-66
2022/10/03 08:30:22;;;;;;;4.32;1.05;;;13.90;99.90;;;;;;6236758;23;20004;-65
2022/10/03 08:33:17;;;;;;;3.92;1.60;;;13.90;99.90;;;;;;6233899;23;20445;-65
2022/10/03 08:36:08;;;;;;;3.38;0.70;;;13.90;99.90;;;;;;6206380;23;20027;-65
2022/10/03 08:39:12;;;;;;;3.92;1.15;;;14.00;99.90;;;;;;6206658;23;20009;-65
2022/10/03 08:41:52;;;;;;;3.60;0.88;;;13.90;99.90;;;;;;6206466;23;20009;-65
2022/10/03 08:45:15;;;;;;;9.52;1.83;;;14.00;99.90;;;;;;6205890;23;20037;-66
2022/10/03 08:48:04;;;;;;;6.43;1.00;;;14.20;99.90;;;;;;6113533;23;20483;-65
2022/10/03 08:50:30;;;;;;;6.45;0.95;;;14.40;99.90;;;;;;6113940;23;20010;-65
2022/10/03 08:52:57;;;;;;;2.33;0.63;;;14.40;99.90;;;;;;6171574;23;20020;-65
2022/10/03 08:55:47;;;;;;;2.05;0.90;;;14.40;99.90;;;;;;6180623;23;20019;-65
2022/10/03 08:58:18;;;;;;;5.55;0.93;;;14.60;99.90;;;;;;6204920;23;20036;-65
2022/10/03 09:01:17;;;;;;;5.28;1.00;;;14.70;99.90;;;;;;6205113;23;20004;-66
2022/10/03 09:04:20;;;;;;;20.85;3.25;;;14.90;99.90;;;;;;6154767;23;20055;-65
2022/10/03 09:07:38;;;;;;;3.45;0.77;;;15.00;99.90;;;;;;6206445;23;20008;-65
2022/10/03 09:10:30;;;;;;;5.25;0.77;;;15.10;99.90;;;;;;6209208;23;20008;-77
2022/10/03 09:13:12;;;;;;;10.98;1.48;;;15.10;99.90;;;;;;6205884;23;20015;-78
2022/10/03 09:16:05;;;;;;;12.13;1.35;;;15.00;99.90;;;;;;6206198;23;20005;-78
2022/10/03 09:19:09;;;;;;;9.15;0.95;;;14.80;99.90;;;;;;6204586;23;20108;-77
2022/10/03 09:22:02;;;;;;;4.85;0.82;;;14.70;99.90;;;;;;6206475;23;20122;-76
2022/10/03 09:25:12;;;;;;;4.28;0.88;;;14.70;99.90;;;;;;6204767;23;20017;-79
2022/10/03 09:27:57;;;;;;;2.08;0.60;;;14.70;99.90;;;;;;6207612;23;20008;-77
2022/10/03 09:30:44;;;;;;;2.75;0.98;;;14.50;99.90;;;;;;6205726;23;20004;-82
2022/10/03 09:33:12;;;;;;;3.38;0.93;;;14.40;99.90;;;;;;6206720;22;20005;-78
2022/10/03 09:35:54;;;;;;;3.58;1.10;;;14.40;99.90;;;;;;6237312;23;20331;-76
2022/10/03 09:38:52;;;;;;;3.20;0.93;;;14.60;99.90;;;;;;6236786;23;19996;-78
2022/10/03 09:42:01;;;;;;;3.05;0.63;;;14.60;99.90;;;;;;6235899;23;20012;-83
2022/10/03 09:44:53;;;;;;;3.85;0.80;;;14.60;99.90;;;;;;6236393;23;20015;-76
2022/10/03 09:48:02;;;;;;;1.52;0.80;;;14.60;99.90;;;;;;6235060;23;20426;-65
2022/10/03 09:50:58;;;;;;;5.80;0.93;;;14.70;99.90;;;;;;6236639;22;20008;-66
2022/10/03 09:53:38;;;;;;;4.53;0.80;;;14.90;99.90;;;;;;6237016;23;20054;-65
2022/10/03 09:56:15;;;;;;;1.92;0.93;;;15.00;99.90;;;;;;6236918;23;20003;-65
2022/10/03 09:59:15;;;;;;;2.97;1.02;;;15.00;99.90;;;;;;6235993;23;20000;-66
2022/10/03 10:01:49;;;;;;;2.67;0.70;;;15.00;99.90;;;;;;6234193;22;20297;-65
2022/10/03 10:04:43;;;;;;;2.45;0.68;;;15.00;99.90;;;;;;6235404;23;20027;-65
2022/10/03 10:07:42;;;;;;;3.90;0.70;;;14.90;99.90;;;;;;6236556;22;20000;-83
2022/10/03 10:10:26;;;;;;;4.28;0.82;;;15.00;99.90;;;;;;6236715;22;20000;-80
2022/10/03 10:13:13;;;;;;;1.63;0.68;;;15.00;99.90;;;;;;6237143;22;20928;-80
2022/10/03 10:16:18;;;;;;;2.25;0.52;;;14.90;99.90;;;;;;6235352;23;20028;-78
2022/10/03 10:19:24;;;;;;;3.10;1.30;;;14.90;99.90;;;;;;6232775;23;20015;-77
2022/10/03 10:22:06;;;;;;;3.63;0.88;;;14.80;99.90;;;;;;6237307;23;20007;-80
2022/10/03 10:25:24;;;;;;;2.70;0.77;;;14.80;99.90;;;;;;6235975;23;20019;-66
2022/10/03 10:27:55;;;;;;;3.22;0.70;;;14.90;99.90;;;;;;6235257;23;20000;-65
2022/10/03 10:30:26;;;;;;;2.00;0.80;;;14.90;99.90;;;;;;6235945;23;20023;-65
2022/10/03 10:33:27;;;;;;;4.80;0.98;;;14.90;99.90;;;;;;6236428;23;20139;-66
2022/10/03 10:36:17;;;;;;;1.77;0.95;;;14.80;99.90;;;;;;6237289;22;20116;-66
2022/10/03 10:39:21;;;;;;;1.85;0.70;;;14.90;99.90;;;;;;6236852;22;20019;-66
2022/10/03 10:42:17;;;;;;;2.38;0.65;;;15.20;99.90;;;;;;6234313;23;20564;-66
2022/10/03 10:45:06;;;;;;;4.10;0.80;;;15.50;99.90;;;;;;6235467;23;20012;-66
2022/10/03 10:47:59;;;;;;;4.07;0.50;;;15.80;99.90;;;;;;6236166;23;20005;-66
2022/10/03 10:50:51;;;;;;;1.48;0.70;;;15.80;99.90;;;;;;6233885;23;20008;-66
2022/10/03 10:53:54;;;;;;;3.70;0.60;;;15.50;99.90;;;;;;6193408;22;20050;-66
2022/10/03 10:56:38;;;;;;;1.73;0.43;;;15.10;99.90;;;;;;6235206;22;20467;-66
2022/10/03 10:59:34;;;;;;;5.30;0.52;;;14.70;99.90;;;;;;6235469;23;20504;-66
2022/10/03 11:02:37;;;;;;;1.55;0.55;;;14.40;99.90;;;;;;6232719;22;20014;-66
2022/10/03 11:05:33;;;;;;;3.08;1.25;;;14.30;99.90;;;;;;6236390;22;20008;-66
2022/10/03 11:08:17;;;;;;;2.28;0.55;;;14.50;99.90;;;;;;6233109;23;20456;-66
2022/10/03 11:11:16;;;;;;;1.38;0.70;;;14.60;99.90;;;;;;6235481;22;20008;-66
2022/10/03 11:13:57;;;;;;;2.17;0.50;;;14.70;99.90;;;;;;6217508;23;20026;-66
2022/10/03 11:16:45;;;;;;;1.52;0.35;;;14.90;99.90;;;;;;6234625;22;20024;-66
2022/10/03 11:19:33;;;;;;;4.88;0.63;;;15.00;99.90;;;;;;6235664;23;20751;-66
2022/10/03 11:22:35;;;;;;;1.75;0.50;;;15.00;99.90;;;;;;6237422;23;20016;-66
2022/10/03 11:25:36;;;;;;;2.50;0.60;;;15.00;99.90;;;;;;6233927;23;20083;-66
2022/10/03 11:28:17;;;;;;;1.50;0.40;;;15.20;99.90;;;;;;6235611;22;20015;-67
2022/10/03 11:31:13;;;;;;;1.23;0.35;;;15.10;99.90;;;;;;6234062;23;20008;-66
2022/10/03 11:33:57;;;;;;;3.08;0.60;;;14.70;99.90;;;;;;6236110;22;20086;-66
2022/10/03 11:36:47;;;;;;;1.60;0.50;;;14.30;99.90;;;;;;6236487;23;20012;-67
2022/10/03 11:39:21;;;;;;;2.30;0.57;;;14.20;99.90;;;;;;6237387;23;20019;-67
2022/10/03 11:42:12;;;;;;;1.85;0.30;;;14.00;99.90;;;;;;6238285;23;20046;-66
2022/10/03 11:44:53;;;;;;;2.42;0.57;;;14.00;99.90;;;;;;6234999;23;20437;-66
2022/10/03 11:47:38;;;;;;;2.53;0.57;;;14.20;99.90;;;;;;6235847;23;20008;-66
2022/10/03 11:50:28;;;;;;;1.05;0.50;;;14.50;99.90;;;;;;6236701;23;20019;-66
2022/10/03 11:53:22;;;;;;;1.20;0.38;;;14.90;99.90;;;;;;6236793;23;20664;-67
2022/10/03 11:56:15;;;;;;;1.20;0.43;;;15.20;99.90;;;;;;6235727;23;20468;-67
2022/10/03 11:59:11;;;;;;;1.25;0.50;;;15.40;99.90;;;;;;6236266;23;20412;-67
2022/10/03 12:01:50;;;;;;;0.60;0.38;;;15.50;99.90;;;;;;6216067;23;20012;-78
2022/10/03 12:04:28;;;;;;;1.38;0.80;;;15.50;99.90;;;;;;6233177;23;20109;-82
2022/10/03 12:10:43;;;;;;;1.95;0.85;;;15.30;99.90;;;;;;6233865;22;20015;-80
2022/10/03 12:13:17;;;;;;;0.75;0.50;;;15.10;99.90;;;;;;6233320;23;20000;-79
2022/10/03 12:15:56;;;;;;;1.63;0.63;;;15.00;99.90;;;;;;6234084;23;20012;-81
2022/10/03 12:18:43;;;;;;;5.60;0.88;;;14.80;99.90;;;;;;6233088;23;20008;-80
2022/10/03 12:21:21;;;;;;;1.88;0.50;;;14.50;99.90;;;;;;6235420;23;20103;-81
2022/10/03 12:24:01;;;;;;;1.80;0.30;;;14.40;99.90;;;;;;6233805;23;20066;-79
2022/10/03 12:26:30;;;;;;;1.55;0.45;;;14.50;99.90;;;;;;6231592;22;20004;-83
2022/10/03 12:28:56;;;;;;;0.88;0.38;;;14.50;99.90;;;;;;6234271;23;20058;-82
2022/10/03 12:31:36;;;;;;;1.13;0.30;;;14.50;99.90;;;;;;6230520;23;20012;-79
2022/10/03 12:34:19;;;;;;;1.58;0.30;;;14.40;99.90;;;;;;6233950;23;20481;-81
2022/10/03 12:37:06;;;;;;;1.95;0.43;;;14.50;99.90;;;;;;6236099;23;20397;-83
2022/10/03 12:39:44;;;;;;;2.30;0.80;;;14.60;99.90;;;;;;6236225;23;20012;-83
2022/10/03 12:42:47;;;;;;;1.85;0.52;;;14.60;99.90;;;;;;6233946;23;20095;-82
2022/10/03 12:45:34;;;;;;;2.25;0.60;;;14.60;99.90;;;;;;6236425;22;20012;-83
2022/10/03 12:48:29;;;;;;;2.75;0.50;;;14.60;99.90;;;;;;6236929;23;20035;-82
2022/10/03 12:51:15;;;;;;;2.10;0.52;;;14.70;99.90;;;;;;6238158;23;20031;-81
2022/10/03 12:53:46;;;;;;;1.27;0.70;;;14.80;99.90;;;;;;6237344;22;20000;-82
2022/10/03 12:56:41;;;;;;;3.35;0.50;;;14.90;99.90;;;;;;6236570;23;20008;-86
2022/10/03 12:59:13;;;;;;;2.35;0.60;;;15.00;99.90;;;;;;6234581;23;20417;-82
2022/10/03 13:01:42;;;;;;;0.52;0.32;;;15.10;99.90;;;;;;6236372;23;20441;-80
2022/10/03 13:04:46;;;;;;;2.65;0.70;;;15.10;99.90;;;;;;6236525;23;20008;-83
2022/10/03 13:07:31;;;;;;;2.38;0.43;;;15.20;99.90;;;;;;6237025;23;20040;-85
2022/10/03 13:10:18;;;;;;;2.50;0.50;;;15.30;99.90;;;;;;6237013;22;20008;-80
2022/10/03 13:13:04;;;;;;;1.73;0.32;;;15.20;99.90;;;;;;6232728;23;20016;-83
2022/10/03 13:16:21;;;;;;;2.10;0.38;;;15.10;99.90;;;;;;6235964;23;20780;-79
2022/10/03 13:19:08;;;;;;;1.05;0.40;;;15.20;99.90;;;;;;6220140;23;20762;-85
2022/10/03 13:21:53;;;;;;;2.75;0.60;;;15.30;99.90;;;;;;6238273;23;20461;-84
2022/10/03 13:24:53;;;;;;;1.15;0.32;;;15.40;99.90;;;;;;6235795;23;20008;-80
2022/10/03 13:27:34;;;;;;;3.70;0.40;;;15.40;99.90;;;;;;6235406;22;20000;-83
2022/10/03 13:30:18;;;;;;;1.80;0.40;;;15.30;99.90;;;;;;6236242;23;20008;-85
2022/10/03 13:32:49;;;;;;;2.50;0.30;;;15.30;99.90;;;;;;6234923;23;20011;-86
2022/10/03 13:35:58;;;;;;;4.15;0.40;;;15.50;99.90;;;;;;6234065;23;20020;-67
2022/10/03 13:38:35;;;;;;;2.70;0.45;;;15.50;99.90;;;;;;6236478;22;20055;-66
2022/10/03 13:41:04;;;;;;;1.45;0.30;;;15.60;99.90;;;;;;6236487;23;20008;-66
2022/10/03 13:43:35;;;;;;;3.53;0.98;;;15.50;99.90;;;;;;6236923;23;20022;-66
2022/10/03 13:46:06;;;;;;;1.43;0.50;;;15.40;99.90;;;;;;6235707;23;20504;-67
2022/10/03 13:48:34;;;;;;;1.20;0.65;;;15.40;99.90;;;;;;6232598;23;20222;-66
2022/10/03 13:51:20;;;;;;;3.05;0.90;;;15.40;99.90;;;;;;6236790;23;20035;-66
2022/10/03 13:54:05;;;;;;;3.00;0.30;;;15.20;99.90;;;;;;6236343;23;20830;-67
2022/10/03 13:56:49;;;;;;;1.33;0.30;;;15.10;99.90;;;;;;6236022;23;20468;-67
2022/10/03 13:59:24;;;;;;;1.05;0.52;;;15.10;99.90;;;;;;6235777;23;20035;-67
2022/10/03 14:02:07;;;;;;;0.55;0.20;;;15.20;99.90;;;;;;6234823;23;20401;-66
2022/10/03 14:04:41;;;;;;;0.90;0.50;;;15.30;99.90;;;;;;6235791;23;20023;-67
2022/10/03 14:07:13;;;;;;;0.82;0.57;;;15.30;99.90;;;;;;6235592;23;20422;-67
2022/10/03 14:10:25;;;;;;;4.00;0.60;;;15.40;99.90;;;;;;6234816;22;20035;-67
2022/10/03 14:13:02;;;;;;;2.33;0.63;;;15.40;99.90;;;;;;6235339;23;20549;-67
2022/10/03 14:15:32;;;;;;;0.47;0.40;;;15.50;99.90;;;;;;6234206;23;20004;-67
2022/10/03 14:18:36;;;;;;;1.38;0.50;;;15.50;99.90;;;;;;6232577;23;20531;-70
2022/10/03 14:21:36;;;;;;;5.78;0.57;;;15.50;99.90;;;;;;6234551;22;20008;-68
2022/10/03 14:24:26;;;;;;;0.63;0.30;;;15.50;99.90;;;;;;6235041;23;20382;-66
2022/10/03 14:26:55;;;;;;;2.88;0.47;;;15.50;99.90;;;;;;6232892;23;20040;-65
2022/10/03 14:29:36;;;;;;;2.55;0.32;;;15.60;99.90;;;;;;6228685;23;20004;-65
2022/10/03 14:32:22;;;;;;;3.28;0.68;;;15.70;99.90;;;;;;6225913;23;20016;-65
2022/10/03 14:34:59;;;;;;;2.17;0.65;;;15.60;99.90;;;;;;6228734;23;20085;-65
2022/10/03 14:37:41;;;;;;;3.15;0.45;;;15.50;99.90;;;;;;6229155;23;20015;-64
2022/10/03 14:40:29;;;;;;;2.35;0.57;;;15.40;99.90;;;;;;6235143;23;20058;-65
2022/10/03 14:43:48;;;;;;;0.88;0.45;;;15.30;99.90;;;;;;6231989;23;20100;-66
2022/10/03 14:46:15;;;;;;;1.80;0.60;;;15.80;99.90;;;;;;6223915;23;20512;-65